sensor_id;sensor_type;location;lat;lon;timestamp;P1;durP1;ratioP1;P2;durP2;ratioP2
43419;SDS011;29017;51.514;-0.178;2023-06-19T00:02:22;33.95;;;21.75;;
43419;SDS011;29017;51.514;-0.178;2023-06-19T00:04:49;33.35;;;21.75;;
43419;SDS011;29017;51.514;-0.178;2023-06-19T00:07:17;34.65;;;22.42;;
43419;SDS011;29017;51.514;-0.178;2023-06-19T00:09:45;36.35;;;21.67;;
43419;SDS011;29017;51.514;-0.178;2023-06-19T00:12:13;35.85;;;21.95;;
43419;SDS011;29017;51.514;-0.178;2023-06-19T00:14:40;34.72;;;21.38;;
43419;SDS011;29017;51.514;-0.178;2023-06-19T00:17:08;38.28;;;22.52;;
43419;SDS011;29017;51.514;-0.178;2023-06-19T00:19:35;35.67;;;21.52;;
43419;SDS011;29017;51.514;-0.178;2023-06-19T00:22:03;34.92;;;20.83;;
43419;SDS011;29017;51.514;-0.178;2023-06-19T00:24:31;31.45;;;20.42;;
43419;SDS011;29017;51.514;-0.178;2023-06-19T00:26:58;33.63;;;19.70;;
43419;SDS011;29017;51.514;-0.178;2023-06-19T00:29:29;31.83;;;19.40;;
43419;SDS011;29017;51.514;-0.178;2023-06-19T00:31:56;36.03;;;20.40;;
43419;SDS011;29017;51.514;-0.178;2023-06-19T00:34:28;36.30;;;20.17;;
43419;SDS011;29017;51.514;-0.178;2023-06-19T00:36:59;33.05;;;19.95;;
43419;SDS011;29017;51.514;-0.178;2023-06-19T00:39:26;30.25;;;18.05;;
43419;SDS011;29017;51.514;-0.178;2023-06-19T00:41:54;33.08;;;19.55;;
43419;SDS011;29017;51.514;-0.178;2023-06-19T00:44:23;30.00;;;19.15;;
43419;SDS011;29017;51.514;-0.178;2023-06-19T00:46:51;30.63;;;17.63;;
43419;SDS011;29017;51.514;-0.178;2023-06-19T00:49:26;31.08;;;17.40;;
43419;SDS011;29017;51.514;-0.178;2023-06-19T00:51:55;29.15;;;17.52;;
43419;SDS011;29017;51.514;-0.178;2023-06-19T00:54:26;28.42;;;17.92;;
43419;SDS011;29017;51.514;-0.178;2023-06-19T00:56:53;26.17;;;17.27;;
43419;SDS011;29017;51.514;-0.178;2023-06-19T00:59:20;30.60;;;18.60;;
43419;SDS011;29017;51.514;-0.178;2023-06-19T01:01:49;28.63;;;16.88;;
43419;SDS011;29017;51.514;-0.178;2023-06-19T01:04:16;33.70;;;19.23;;
43419;SDS011;29017;51.514;-0.178;2023-06-19T01:06:46;32.33;;;19.40;;
43419;SDS011;29017;51.514;-0.178;2023-06-19T01:09:19;29.38;;;17.98;;
43419;SDS011;29017;51.514;-0.178;2023-06-19T01:11:51;29.20;;;17.73;;
43419;SDS011;29017;51.514;-0.178;2023-06-19T01:14:23;29.73;;;16.77;;
43419;SDS011;29017;51.514;-0.178;2023-06-19T01:16:53;29.25;;;16.95;;
43419;SDS011;29017;51.514;-0.178;2023-06-19T01:19:21;28.10;;;17.10;;
43419;SDS011;29017;51.514;-0.178;2023-06-19T01:21:48;27.40;;;16.30;;
43419;SDS011;29017;51.514;-0.178;2023-06-19T01:24:16;27.75;;;15.45;;
43419;SDS011;29017;51.514;-0.178;2023-06-19T01:26:44;25.65;;;15.68;;
43419;SDS011;29017;51.514;-0.178;2023-06-19T01:29:13;26.40;;;15.38;;
43419;SDS011;29017;51.514;-0.178;2023-06-19T01:31:45;24.42;;;15.32;;
43419;SDS011;29017;51.514;-0.178;2023-06-19T01:34:19;25.02;;;14.32;;
43419;SDS011;29017;51.514;-0.178;2023-06-19T01:36:48;25.48;;;14.02;;
43419;SDS011;29017;51.514;-0.178;2023-06-19T01:39:17;22.83;;;13.90;;
43419;SDS011;29017;51.514;-0.178;2023-06-19T01:41:46;22.85;;;13.73;;
43419;SDS011;29017;51.514;-0.178;2023-06-19T01:44:14;22.45;;;14.07;;
43419;SDS011;29017;51.514;-0.178;2023-06-19T01:46:42;24.00;;;14.52;;
43419;SDS011;29017;51.514;-0.178;2023-06-19T01:49:09;28.27;;;16.08;;
43419;SDS011;29017;51.514;-0.178;2023-06-19T01:51:36;23.23;;;14.50;;
43419;SDS011;29017;51.514;-0.178;2023-06-19T01:54:03;23.52;;;14.50;;
43419;SDS011;29017;51.514;-0.178;2023-06-19T01:56:30;23.15;;;14.57;;
43419;SDS011;29017;51.514;-0.178;2023-06-19T01:58:58;25.05;;;14.30;;
43419;SDS011;29017;51.514;-0.178;2023-06-19T02:01:25;21.52;;;13.88;;
43419;SDS011;29017;51.514;-0.178;2023-06-19T02:03:52;23.90;;;14.15;;
43419;SDS011;29017;51.514;-0.178;2023-06-19T02:06:19;24.17;;;14.15;;
43419;SDS011;29017;51.514;-0.178;2023-06-19T02:08:48;26.67;;;14.88;;
43419;SDS011;29017;51.514;-0.178;2023-06-19T02:11:15;23.33;;;14.07;;
43419;SDS011;29017;51.514;-0.178;2023-06-19T02:13:42;25.52;;;14.55;;
43419;SDS011;29017;51.514;-0.178;2023-06-19T02:16:09;22.70;;;14.13;;
43419;SDS011;29017;51.514;-0.178;2023-06-19T02:18:36;25.55;;;14.00;;
43419;SDS011;29017;51.514;-0.178;2023-06-19T02:21:03;24.95;;;15.27;;
43419;SDS011;29017;51.514;-0.178;2023-06-19T02:23:33;24.15;;;13.95;;
43419;SDS011;29017;51.514;-0.178;2023-06-19T02:26:01;25.33;;;13.90;;
43419;SDS011;29017;51.514;-0.178;2023-06-19T02:28:28;23.10;;;13.82;;
43419;SDS011;29017;51.514;-0.178;2023-06-19T02:30:55;19.67;;;12.38;;
43419;SDS011;29017;51.514;-0.178;2023-06-19T02:33:22;25.67;;;14.85;;
43419;SDS011;29017;51.514;-0.178;2023-06-19T02:35:49;25.48;;;13.82;;
43419;SDS011;29017;51.514;-0.178;2023-06-19T02:38:16;22.77;;;13.65;;
43419;SDS011;29017;51.514;-0.178;2023-06-19T02:40:47;21.95;;;13.35;;
43419;SDS011;29017;51.514;-0.178;2023-06-19T02:43:14;23.60;;;13.70;;
43419;SDS011;29017;51.514;-0.178;2023-06-19T02:45:42;23.20;;;14.05;;
43419;SDS011;29017;51.514;-0.178;2023-06-19T02:48:09;24.10;;;14.27;;
43419;SDS011;29017;51.514;-0.178;2023-06-19T02:50:36;21.30;;;13.57;;
43419;SDS011;29017;51.514;-0.178;2023-06-19T02:53:03;23.60;;;12.57;;
43419;SDS011;29017;51.514;-0.178;2023-06-19T02:55:30;22.92;;;12.88;;
43419;SDS011;29017;51.514;-0.178;2023-06-19T02:57:58;18.23;;;11.98;;
43419;SDS011;29017;51.514;-0.178;2023-06-19T03:00:25;21.33;;;13.35;;
43419;SDS011;29017;51.514;-0.178;2023-06-19T03:02:55;19.55;;;11.95;;
43419;SDS011;29017;51.514;-0.178;2023-06-19T03:05:22;21.17;;;12.10;;
43419;SDS011;29017;51.514;-0.178;2023-06-19T03:07:49;18.80;;;11.65;;
43419;SDS011;29017;51.514;-0.178;2023-06-19T03:10:16;19.67;;;11.40;;
43419;SDS011;29017;51.514;-0.178;2023-06-19T03:12:43;18.08;;;11.80;;
43419;SDS011;29017;51.514;-0.178;2023-06-19T03:15:10;18.73;;;10.73;;
43419;SDS011;29017;51.514;-0.178;2023-06-19T03:17:37;22.90;;;12.55;;
43419;SDS011;29017;51.514;-0.178;2023-06-19T03:20:05;15.98;;;10.30;;
43419;SDS011;29017;51.514;-0.178;2023-06-19T03:22:33;18.88;;;11.02;;
43419;SDS011;29017;51.514;-0.178;2023-06-19T03:25:00;18.52;;;10.60;;
43419;SDS011;29017;51.514;-0.178;2023-06-19T03:27:27;19.33;;;10.50;;
43419;SDS011;29017;51.514;-0.178;2023-06-19T03:29:55;16.63;;;9.63;;
43419;SDS011;29017;51.514;-0.178;2023-06-19T03:32:22;14.50;;;9.52;;
43419;SDS011;29017;51.514;-0.178;2023-06-19T03:34:50;16.73;;;9.73;;
43419;SDS011;29017;51.514;-0.178;2023-06-19T03:37:17;15.85;;;9.68;;
43419;SDS011;29017;51.514;-0.178;2023-06-19T03:39:44;19.75;;;11.07;;
43419;SDS011;29017;51.514;-0.178;2023-06-19T03:42:11;19.23;;;9.85;;
43419;SDS011;29017;51.514;-0.178;2023-06-19T03:44:38;15.05;;;9.55;;
43419;SDS011;29017;51.514;-0.178;2023-06-19T03:47:05;17.02;;;9.38;;
43419;SDS011;29017;51.514;-0.178;2023-06-19T03:49:32;17.75;;;10.27;;
43419;SDS011;29017;51.514;-0.178;2023-06-19T03:51:59;15.32;;;9.95;;
43419;SDS011;29017;51.514;-0.178;2023-06-19T03:54:26;16.08;;;9.57;;
43419;SDS011;29017;51.514;-0.178;2023-06-19T03:56:53;16.70;;;9.30;;
43419;SDS011;29017;51.514;-0.178;2023-06-19T03:59:20;16.52;;;9.00;;
43419;SDS011;29017;51.514;-0.178;2023-06-19T04:01:47;14.90;;;9.15;;
43419;SDS011;29017;51.514;-0.178;2023-06-19T04:04:14;17.90;;;10.00;;
43419;SDS011;29017;51.514;-0.178;2023-06-19T04:06:42;16.00;;;8.57;;
43419;SDS011;29017;51.514;-0.178;2023-06-19T04:09:15;15.40;;;8.63;;
43419;SDS011;29017;51.514;-0.178;2023-06-19T04:11:42;16.92;;;9.15;;
43419;SDS011;29017;51.514;-0.178;2023-06-19T04:14:09;14.38;;;8.63;;
43419;SDS011;29017;51.514;-0.178;2023-06-19T04:16:36;15.55;;;10.77;;
43419;SDS011;29017;51.514;-0.178;2023-06-19T04:19:03;17.30;;;9.52;;
43419;SDS011;29017;51.514;-0.178;2023-06-19T04:21:30;14.63;;;9.02;;
43419;SDS011;29017;51.514;-0.178;2023-06-19T04:23:57;15.15;;;9.15;;
43419;SDS011;29017;51.514;-0.178;2023-06-19T04:26:24;17.38;;;8.65;;
43419;SDS011;29017;51.514;-0.178;2023-06-19T04:28:52;16.42;;;9.98;;
43419;SDS011;29017;51.514;-0.178;2023-06-19T04:31:19;16.70;;;9.60;;
43419;SDS011;29017;51.514;-0.178;2023-06-19T04:33:46;16.02;;;9.55;;
43419;SDS011;29017;51.514;-0.178;2023-06-19T04:36:13;21.60;;;9.65;;
43419;SDS011;29017;51.514;-0.178;2023-06-19T04:38:41;15.60;;;8.98;;
43419;SDS011;29017;51.514;-0.178;2023-06-19T04:41:08;15.15;;;9.05;;
43419;SDS011;29017;51.514;-0.178;2023-06-19T04:43:36;12.93;;;7.88;;
43419;SDS011;29017;51.514;-0.178;2023-06-19T04:46:03;16.40;;;8.32;;
43419;SDS011;29017;51.514;-0.178;2023-06-19T04:48:30;14.48;;;8.07;;
43419;SDS011;29017;51.514;-0.178;2023-06-19T04:50:58;15.00;;;8.13;;
43419;SDS011;29017;51.514;-0.178;2023-06-19T04:53:27;13.70;;;8.05;;
43419;SDS011;29017;51.514;-0.178;2023-06-19T04:55:54;15.50;;;8.50;;
43419;SDS011;29017;51.514;-0.178;2023-06-19T04:58:21;15.20;;;8.13;;
43419;SDS011;29017;51.514;-0.178;2023-06-19T05:00:49;17.48;;;8.98;;
43419;SDS011;29017;51.514;-0.178;2023-06-19T05:03:18;14.70;;;8.60;;
43419;SDS011;29017;51.514;-0.178;2023-06-19T05:05:45;15.65;;;8.30;;
43419;SDS011;29017;51.514;-0.178;2023-06-19T05:08:12;13.75;;;8.68;;
43419;SDS011;29017;51.514;-0.178;2023-06-19T05:10:39;16.08;;;9.27;;
43419;SDS011;29017;51.514;-0.178;2023-06-19T05:13:08;14.00;;;9.07;;
43419;SDS011;29017;51.514;-0.178;2023-06-19T05:15:35;15.95;;;8.93;;
43419;SDS011;29017;51.514;-0.178;2023-06-19T05:18:02;17.38;;;10.05;;
43419;SDS011;29017;51.514;-0.178;2023-06-19T05:20:29;15.50;;;9.23;;
43419;SDS011;29017;51.514;-0.178;2023-06-19T05:22:57;15.98;;;9.13;;
43419;SDS011;29017;51.514;-0.178;2023-06-19T05:25:24;13.88;;;8.38;;
43419;SDS011;29017;51.514;-0.178;2023-06-19T05:27:51;14.60;;;9.00;;
43419;SDS011;29017;51.514;-0.178;2023-06-19T05:30:18;16.08;;;8.65;;
43419;SDS011;29017;51.514;-0.178;2023-06-19T05:32:46;15.02;;;8.88;;
43419;SDS011;29017;51.514;-0.178;2023-06-19T05:35:13;16.98;;;9.43;;
43419;SDS011;29017;51.514;-0.178;2023-06-19T05:37:42;16.42;;;8.75;;
43419;SDS011;29017;51.514;-0.178;2023-06-19T05:40:10;18.65;;;9.10;;
43419;SDS011;29017;51.514;-0.178;2023-06-19T05:42:38;24.15;;;10.27;;
43419;SDS011;29017;51.514;-0.178;2023-06-19T05:45:06;20.42;;;9.45;;
43419;SDS011;29017;51.514;-0.178;2023-06-19T05:47:34;16.98;;;9.63;;
43419;SDS011;29017;51.514;-0.178;2023-06-19T05:50:01;19.10;;;10.45;;
43419;SDS011;29017;51.514;-0.178;2023-06-19T05:52:29;18.55;;;11.15;;
43419;SDS011;29017;51.514;-0.178;2023-06-19T05:54:56;20.52;;;11.20;;
43419;SDS011;29017;51.514;-0.178;2023-06-19T05:57:25;16.70;;;10.02;;
43419;SDS011;29017;51.514;-0.178;2023-06-19T05:59:52;18.33;;;10.23;;
43419;SDS011;29017;51.514;-0.178;2023-06-19T06:02:19;19.23;;;10.43;;
43419;SDS011;29017;51.514;-0.178;2023-06-19T06:04:47;15.82;;;9.55;;
43419;SDS011;29017;51.514;-0.178;2023-06-19T06:07:14;17.10;;;10.23;;
43419;SDS011;29017;51.514;-0.178;2023-06-19T06:09:41;18.73;;;9.75;;
43419;SDS011;29017;51.514;-0.178;2023-06-19T06:12:09;19.40;;;9.27;;
43419;SDS011;29017;51.514;-0.178;2023-06-19T06:14:36;15.63;;;9.50;;
43419;SDS011;29017;51.514;-0.178;2023-06-19T06:17:03;15.38;;;9.07;;
43419;SDS011;29017;51.514;-0.178;2023-06-19T06:19:32;19.33;;;11.25;;
43419;SDS011;29017;51.514;-0.178;2023-06-19T06:21:59;20.75;;;10.30;;
43419;SDS011;29017;51.514;-0.178;2023-06-19T06:24:26;16.55;;;9.70;;
43419;SDS011;29017;51.514;-0.178;2023-06-19T06:26:54;18.08;;;8.93;;
43419;SDS011;29017;51.514;-0.178;2023-06-19T06:29:21;18.58;;;9.60;;
43419;SDS011;29017;51.514;-0.178;2023-06-19T06:31:49;17.20;;;9.27;;
43419;SDS011;29017;51.514;-0.178;2023-06-19T06:34:19;17.50;;;9.65;;
43419;SDS011;29017;51.514;-0.178;2023-06-19T06:36:46;17.20;;;9.15;;
43419;SDS011;29017;51.514;-0.178;2023-06-19T06:39:31;17.00;;;9.82;;
43419;SDS011;29017;51.514;-0.178;2023-06-19T06:41:58;17.23;;;9.30;;
43419;SDS011;29017;51.514;-0.178;2023-06-19T06:44:25;17.85;;;9.60;;
43419;SDS011;29017;51.514;-0.178;2023-06-19T06:46:57;16.45;;;9.02;;
43419;SDS011;29017;51.514;-0.178;2023-06-19T06:49:30;17.23;;;9.75;;
43419;SDS011;29017;51.514;-0.178;2023-06-19T06:51:57;17.88;;;8.85;;
43419;SDS011;29017;51.514;-0.178;2023-06-19T06:54:24;14.85;;;8.68;;
43419;SDS011;29017;51.514;-0.178;2023-06-19T06:56:59;16.73;;;9.32;;
43419;SDS011;29017;51.514;-0.178;2023-06-19T06:59:37;18.77;;;9.40;;
43419;SDS011;29017;51.514;-0.178;2023-06-19T07:02:05;20.05;;;9.02;;
43419;SDS011;29017;51.514;-0.178;2023-06-19T07:04:32;18.38;;;9.02;;
43419;SDS011;29017;51.514;-0.178;2023-06-19T07:07:00;17.73;;;8.43;;
43419;SDS011;29017;51.514;-0.178;2023-06-19T07:09:37;18.35;;;8.52;;
43419;SDS011;29017;51.514;-0.178;2023-06-19T07:12:04;17.73;;;8.77;;
43419;SDS011;29017;51.514;-0.178;2023-06-19T07:14:33;18.73;;;8.65;;
43419;SDS011;29017;51.514;-0.178;2023-06-19T07:17:04;13.40;;;8.00;;
43419;SDS011;29017;51.514;-0.178;2023-06-19T07:19:44;18.10;;;8.48;;
43419;SDS011;29017;51.514;-0.178;2023-06-19T07:22:11;17.15;;;8.73;;
43419;SDS011;29017;51.514;-0.178;2023-06-19T07:24:40;16.08;;;8.75;;
43419;SDS011;29017;51.514;-0.178;2023-06-19T07:27:39;16.40;;;8.30;;
43419;SDS011;29017;51.514;-0.178;2023-06-19T07:30:10;16.88;;;8.88;;
43419;SDS011;29017;51.514;-0.178;2023-06-19T07:32:42;18.88;;;8.45;;
43419;SDS011;29017;51.514;-0.178;2023-06-19T07:35:09;15.98;;;7.93;;
43419;SDS011;29017;51.514;-0.178;2023-06-19T07:37:38;14.27;;;8.05;;
43419;SDS011;29017;51.514;-0.178;2023-06-19T07:40:05;16.40;;;7.90;;
43419;SDS011;29017;51.514;-0.178;2023-06-19T07:42:33;14.57;;;8.52;;
43419;SDS011;29017;51.514;-0.178;2023-06-19T07:45:00;16.80;;;8.00;;
43419;SDS011;29017;51.514;-0.178;2023-06-19T07:47:32;16.38;;;8.35;;
43419;SDS011;29017;51.514;-0.178;2023-06-19T07:50:09;13.75;;;7.03;;
43419;SDS011;29017;51.514;-0.178;2023-06-19T07:52:37;13.15;;;6.82;;
43419;SDS011;29017;51.514;-0.178;2023-06-19T07:55:14;13.48;;;6.80;;
43419;SDS011;29017;51.514;-0.178;2023-06-19T07:57:55;12.98;;;6.03;;
43419;SDS011;29017;51.514;-0.178;2023-06-19T08:00:27;12.60;;;6.88;;
43419;SDS011;29017;51.514;-0.178;2023-06-19T08:02:54;13.55;;;6.57;;
43419;SDS011;29017;51.514;-0.178;2023-06-19T08:05:49;11.68;;;5.90;;
43419;SDS011;29017;51.514;-0.178;2023-06-19T08:08:17;11.48;;;6.30;;
43419;SDS011;29017;51.514;-0.178;2023-06-19T08:10:44;14.75;;;6.95;;
43419;SDS011;29017;51.514;-0.178;2023-06-19T08:13:15;14.68;;;6.82;;
43419;SDS011;29017;51.514;-0.178;2023-06-19T08:15:53;11.43;;;5.35;;
43419;SDS011;29017;51.514;-0.178;2023-06-19T08:18:21;12.73;;;5.15;;
43419;SDS011;29017;51.514;-0.178;2023-06-19T08:20:48;12.48;;;4.97;;
43419;SDS011;29017;51.514;-0.178;2023-06-19T08:23:17;14.52;;;5.63;;
43419;SDS011;29017;51.514;-0.178;2023-06-19T08:25:45;9.70;;;4.63;;
43419;SDS011;29017;51.514;-0.178;2023-06-19T08:28:12;14.52;;;5.38;;
43419;SDS011;29017;51.514;-0.178;2023-06-19T08:30:41;10.15;;;4.97;;
43419;SDS011;29017;51.514;-0.178;2023-06-19T08:33:12;10.82;;;4.32;;
43419;SDS011;29017;51.514;-0.178;2023-06-19T08:35:40;10.68;;;4.00;;
43419;SDS011;29017;51.514;-0.178;2023-06-19T08:38:07;9.30;;;4.13;;
43419;SDS011;29017;51.514;-0.178;2023-06-19T08:40:34;9.30;;;3.88;;
43419;SDS011;29017;51.514;-0.178;2023-06-19T08:43:02;11.75;;;4.53;;
43419;SDS011;29017;51.514;-0.178;2023-06-19T08:45:30;10.02;;;4.50;;
43419;SDS011;29017;51.514;-0.178;2023-06-19T08:47:58;9.82;;;4.20;;
43419;SDS011;29017;51.514;-0.178;2023-06-19T08:50:27;8.60;;;3.53;;
43419;SDS011;29017;51.514;-0.178;2023-06-19T08:52:54;7.70;;;3.33;;
43419;SDS011;29017;51.514;-0.178;2023-06-19T08:55:22;7.93;;;3.20;;
43419;SDS011;29017;51.514;-0.178;2023-06-19T08:57:50;7.80;;;3.47;;
43419;SDS011;29017;51.514;-0.178;2023-06-19T09:00:23;7.97;;;3.42;;
43419;SDS011;29017;51.514;-0.178;2023-06-19T09:02:59;8.45;;;3.92;;
43419;SDS011;29017;51.514;-0.178;2023-06-19T09:05:40;10.57;;;3.35;;
43419;SDS011;29017;51.514;-0.178;2023-06-19T09:08:18;7.93;;;2.97;;
43419;SDS011;29017;51.514;-0.178;2023-06-19T09:10:54;5.88;;;3.00;;
43419;SDS011;29017;51.514;-0.178;2023-06-19T09:13:23;7.47;;;2.65;;
43419;SDS011;29017;51.514;-0.178;2023-06-19T09:21:36;5.45;;;2.67;;
43419;SDS011;29017;51.514;-0.178;2023-06-19T09:24:08;7.70;;;2.42;;
43419;SDS011;29017;51.514;-0.178;2023-06-19T09:26:48;8.18;;;2.78;;
43419;SDS011;29017;51.514;-0.178;2023-06-19T09:29:18;7.70;;;3.22;;
43419;SDS011;29017;51.514;-0.178;2023-06-19T09:31:47;8.18;;;3.13;;
43419;SDS011;29017;51.514;-0.178;2023-06-19T09:34:14;8.23;;;3.40;;
43419;SDS011;29017;51.514;-0.178;2023-06-19T09:36:43;7.50;;;3.35;;
43419;SDS011;29017;51.514;-0.178;2023-06-19T09:39:13;8.25;;;2.90;;
43419;SDS011;29017;51.514;-0.178;2023-06-19T09:41:44;13.63;;;2.67;;
43419;SDS011;29017;51.514;-0.178;2023-06-19T09:44:14;9.48;;;2.90;;
43419;SDS011;29017;51.514;-0.178;2023-06-19T09:46:44;9.98;;;3.40;;
43419;SDS011;29017;51.514;-0.178;2023-06-19T09:49:13;3.17;;;1.65;;
43419;SDS011;29017;51.514;-0.178;2023-06-19T09:51:42;6.35;;;1.42;;
43419;SDS011;29017;51.514;-0.178;2023-06-19T09:54:09;5.63;;;2.00;;
43419;SDS011;29017;51.514;-0.178;2023-06-19T09:56:37;4.65;;;2.13;;
43419;SDS011;29017;51.514;-0.178;2023-06-19T09:59:19;5.25;;;1.92;;
43419;SDS011;29017;51.514;-0.178;2023-06-19T10:01:46;4.88;;;2.10;;
43419;SDS011;29017;51.514;-0.178;2023-06-19T10:04:13;6.53;;;2.42;;
43419;SDS011;29017;51.514;-0.178;2023-06-19T10:06:44;7.18;;;2.10;;
43419;SDS011;29017;51.514;-0.178;2023-06-19T10:09:32;6.15;;;1.85;;
43419;SDS011;29017;51.514;-0.178;2023-06-19T10:11:59;8.35;;;2.15;;
43419;SDS011;29017;51.514;-0.178;2023-06-19T10:14:44;6.45;;;2.08;;
43419;SDS011;29017;51.514;-0.178;2023-06-19T10:17:17;6.45;;;2.95;;
43419;SDS011;29017;51.514;-0.178;2023-06-19T10:19:50;6.57;;;2.40;;
43419;SDS011;29017;51.514;-0.178;2023-06-19T10:22:19;4.35;;;2.25;;
43419;SDS011;29017;51.514;-0.178;2023-06-19T10:24:51;5.90;;;2.13;;
43419;SDS011;29017;51.514;-0.178;2023-06-19T10:27:24;6.90;;;2.20;;
43419;SDS011;29017;51.514;-0.178;2023-06-19T10:29:52;6.93;;;2.17;;
43419;SDS011;29017;51.514;-0.178;2023-06-19T10:32:40;7.03;;;2.47;;
43419;SDS011;29017;51.514;-0.178;2023-06-19T10:35:11;4.43;;;1.95;;
43419;SDS011;29017;51.514;-0.178;2023-06-19T10:37:40;5.70;;;2.25;;
43419;SDS011;29017;51.514;-0.178;2023-06-19T10:40:08;9.70;;;3.70;;
43419;SDS011;29017;51.514;-0.178;2023-06-19T10:42:36;7.65;;;2.40;;
43419;SDS011;29017;51.514;-0.178;2023-06-19T10:45:04;7.68;;;2.22;;
43419;SDS011;29017;51.514;-0.178;2023-06-19T10:47:33;7.00;;;3.08;;
43419;SDS011;29017;51.514;-0.178;2023-06-19T10:50:00;6.00;;;2.22;;
43419;SDS011;29017;51.514;-0.178;2023-06-19T10:52:30;5.85;;;2.25;;
43419;SDS011;29017;51.514;-0.178;2023-06-19T10:54:57;6.43;;;1.90;;
43419;SDS011;29017;51.514;-0.178;2023-06-19T10:57:30;5.97;;;2.08;;
43419;SDS011;29017;51.514;-0.178;2023-06-19T10:59:58;8.13;;;2.05;;
43419;SDS011;29017;51.514;-0.178;2023-06-19T11:02:25;5.45;;;2.47;;
43419;SDS011;29017;51.514;-0.178;2023-06-19T11:04:53;3.63;;;1.83;;
43419;SDS011;29017;51.514;-0.178;2023-06-19T11:07:23;5.40;;;1.92;;
43419;SDS011;29017;51.514;-0.178;2023-06-19T11:09:50;6.90;;;1.83;;
43419;SDS011;29017;51.514;-0.178;2023-06-19T11:12:20;4.80;;;2.30;;
43419;SDS011;29017;51.514;-0.178;2023-06-19T11:14:48;5.97;;;2.42;;
43419;SDS011;29017;51.514;-0.178;2023-06-19T11:17:18;7.78;;;2.15;;
43419;SDS011;29017;51.514;-0.178;2023-06-19T11:19:48;4.07;;;1.75;;
43419;SDS011;29017;51.514;-0.178;2023-06-19T11:22:16;5.90;;;2.22;;
43419;SDS011;29017;51.514;-0.178;2023-06-19T11:24:44;3.80;;;1.77;;
43419;SDS011;29017;51.514;-0.178;2023-06-19T11:27:20;3.45;;;1.70;;
43419;SDS011;29017;51.514;-0.178;2023-06-19T11:29:59;3.55;;;2.00;;
43419;SDS011;29017;51.514;-0.178;2023-06-19T11:32:30;6.00;;;2.00;;
43419;SDS011;29017;51.514;-0.178;2023-06-19T11:35:03;5.90;;;2.17;;
43419;SDS011;29017;51.514;-0.178;2023-06-19T11:37:34;6.95;;;2.90;;
43419;SDS011;29017;51.514;-0.178;2023-06-19T11:40:02;10.07;;;4.22;;
43419;SDS011;29017;51.514;-0.178;2023-06-19T11:42:47;6.75;;;2.00;;
43419;SDS011;29017;51.514;-0.178;2023-06-19T11:45:16;3.90;;;1.60;;
43419;SDS011;29017;51.514;-0.178;2023-06-19T11:47:43;6.43;;;1.50;;
43419;SDS011;29017;51.514;-0.178;2023-06-19T11:50:15;5.35;;;1.42;;
43419;SDS011;29017;51.514;-0.178;2023-06-19T11:52:43;4.30;;;1.25;;
43419;SDS011;29017;51.514;-0.178;2023-06-19T11:55:11;4.53;;;1.50;;
43419;SDS011;29017;51.514;-0.178;2023-06-19T11:57:42;6.05;;;1.67;;
43419;SDS011;29017;51.514;-0.178;2023-06-19T12:00:14;5.38;;;1.83;;
43419;SDS011;29017;51.514;-0.178;2023-06-19T12:02:44;4.40;;;1.52;;
43419;SDS011;29017;51.514;-0.178;2023-06-19T12:05:13;7.53;;;1.73;;
43419;SDS011;29017;51.514;-0.178;2023-06-19T12:07:40;3.80;;;1.45;;
43419;SDS011;29017;51.514;-0.178;2023-06-19T12:10:08;8.95;;;1.80;;
43419;SDS011;29017;51.514;-0.178;2023-06-19T12:12:38;4.47;;;1.75;;
43419;SDS011;29017;51.514;-0.178;2023-06-19T12:15:05;4.82;;;1.65;;
43419;SDS011;29017;51.514;-0.178;2023-06-19T12:17:33;6.53;;;1.60;;
43419;SDS011;29017;51.514;-0.178;2023-06-19T12:20:01;3.08;;;1.15;;
43419;SDS011;29017;51.514;-0.178;2023-06-19T12:22:32;2.95;;;0.95;;
43419;SDS011;29017;51.514;-0.178;2023-06-19T12:25:01;3.78;;;1.10;;
43419;SDS011;29017;51.514;-0.178;2023-06-19T12:27:28;3.88;;;1.15;;
43419;SDS011;29017;51.514;-0.178;2023-06-19T12:29:55;7.85;;;1.45;;
43419;SDS011;29017;51.514;-0.178;2023-06-19T12:32:22;6.47;;;1.35;;
43419;SDS011;29017;51.514;-0.178;2023-06-19T12:34:49;4.00;;;1.08;;
43419;SDS011;29017;51.514;-0.178;2023-06-19T12:37:21;4.40;;;1.30;;
43419;SDS011;29017;51.514;-0.178;2023-06-19T12:39:49;5.25;;;1.33;;
43419;SDS011;29017;51.514;-0.178;2023-06-19T12:42:17;5.03;;;1.00;;
43419;SDS011;29017;51.514;-0.178;2023-06-19T12:44:44;4.95;;;1.10;;
43419;SDS011;29017;51.514;-0.178;2023-06-19T12:47:11;4.43;;;1.60;;
43419;SDS011;29017;51.514;-0.178;2023-06-19T12:49:39;4.47;;;1.13;;
43419;SDS011;29017;51.514;-0.178;2023-06-19T12:52:06;5.00;;;1.52;;
43419;SDS011;29017;51.514;-0.178;2023-06-19T12:54:33;6.82;;;1.13;;
43419;SDS011;29017;51.514;-0.178;2023-06-19T12:57:00;4.90;;;1.17;;
43419;SDS011;29017;51.514;-0.178;2023-06-19T12:59:28;5.85;;;1.40;;
43419;SDS011;29017;51.514;-0.178;2023-06-19T13:01:55;3.38;;;1.25;;
43419;SDS011;29017;51.514;-0.178;2023-06-19T13:04:23;3.72;;;1.27;;
43419;SDS011;29017;51.514;-0.178;2023-06-19T13:06:50;7.57;;;1.70;;
43419;SDS011;29017;51.514;-0.178;2023-06-19T13:09:18;3.63;;;1.27;;
43419;SDS011;29017;51.514;-0.178;2023-06-19T13:11:45;4.65;;;1.10;;
43419;SDS011;29017;51.514;-0.178;2023-06-19T13:14:12;2.78;;;1.10;;
43419;SDS011;29017;51.514;-0.178;2023-06-19T13:16:39;3.92;;;1.17;;
43419;SDS011;29017;51.514;-0.178;2023-06-19T13:19:19;6.80;;;1.20;;
43419;SDS011;29017;51.514;-0.178;2023-06-19T13:21:46;5.72;;;1.33;;
43419;SDS011;29017;51.514;-0.178;2023-06-19T13:24:13;5.25;;;1.10;;
43419;SDS011;29017;51.514;-0.178;2023-06-19T13:26:40;4.90;;;1.35;;
43419;SDS011;29017;51.514;-0.178;2023-06-19T13:29:07;4.20;;;0.93;;
43419;SDS011;29017;51.514;-0.178;2023-06-19T13:31:34;2.50;;;1.13;;
43419;SDS011;29017;51.514;-0.178;2023-06-19T13:34:03;3.30;;;1.52;;
43419;SDS011;29017;51.514;-0.178;2023-06-19T13:36:52;2.42;;;1.10;;
43419;SDS011;29017;51.514;-0.178;2023-06-19T13:39:28;3.75;;;1.13;;
43419;SDS011;29017;51.514;-0.178;2023-06-19T13:41:55;5.05;;;1.30;;
43419;SDS011;29017;51.514;-0.178;2023-06-19T13:44:22;2.15;;;0.88;;
43419;SDS011;29017;51.514;-0.178;2023-06-19T13:46:57;4.03;;;1.20;;
43419;SDS011;29017;51.514;-0.178;2023-06-19T13:49:27;4.55;;;1.23;;
43419;SDS011;29017;51.514;-0.178;2023-06-19T13:51:55;3.22;;;1.20;;
43419;SDS011;29017;51.514;-0.178;2023-06-19T13:54:22;3.22;;;1.05;;
43419;SDS011;29017;51.514;-0.178;2023-06-19T13:56:55;2.83;;;1.10;;
43419;SDS011;29017;51.514;-0.178;2023-06-19T13:59:22;5.33;;;1.00;;
43419;SDS011;29017;51.514;-0.178;2023-06-19T14:01:49;2.65;;;1.10;;
43419;SDS011;29017;51.514;-0.178;2023-06-19T14:04:16;2.85;;;0.85;;
43419;SDS011;29017;51.514;-0.178;2023-06-19T14:06:43;8.82;;;1.45;;
43419;SDS011;29017;51.514;-0.178;2023-06-19T14:09:26;5.75;;;1.15;;
43419;SDS011;29017;51.514;-0.178;2023-06-19T14:11:53;5.18;;;1.83;;
43419;SDS011;29017;51.514;-0.178;2023-06-19T14:14:20;5.00;;;1.95;;
43419;SDS011;29017;51.514;-0.178;2023-06-19T14:16:51;3.55;;;1.00;;
43419;SDS011;29017;51.514;-0.178;2023-06-19T14:19:21;5.15;;;1.10;;
43419;SDS011;29017;51.514;-0.178;2023-06-19T14:21:49;9.23;;;1.15;;
43419;SDS011;29017;51.514;-0.178;2023-06-19T14:24:16;17.30;;;1.85;;
43419;SDS011;29017;51.514;-0.178;2023-06-19T14:26:46;8.45;;;1.30;;
43419;SDS011;29017;51.514;-0.178;2023-06-19T14:29:25;6.57;;;0.93;;
43419;SDS011;29017;51.514;-0.178;2023-06-19T14:31:52;3.83;;;1.08;;
43419;SDS011;29017;51.514;-0.178;2023-06-19T14:34:19;3.58;;;1.73;;
43419;SDS011;29017;51.514;-0.178;2023-06-19T14:36:52;4.93;;;0.93;;
43419;SDS011;29017;51.514;-0.178;2023-06-19T14:39:20;13.00;;;3.35;;
43419;SDS011;29017;51.514;-0.178;2023-06-19T14:41:47;3.30;;;1.30;;